Time;durP1;ratioP1;P1;durP2;ratioP2;P2;SDS_P1;SDS_P2;PMS_P1;PMS_P2;Temp;Humidity;BMP_temperature;BMP_pressure;BME280_temperature;BME280_humidity;BME280_pressure;Samples;Min_cycle;Max_cycle;Signal;HPM_P1;HPM_P2
2021/11/30 00:01:58;;;;;;;4.05;1.98;;;4.00;99.90;;;;;;4993527;28;20076;-69
2021/11/30 00:04:29;;;;;;;5.38;2.92;;;4.10;99.90;;;;;;5009495;28;20541;-69
2021/11/30 00:06:54;;;;;;;;;;;4.00;99.90;;;;;;5006994;28;20026;-69
2021/11/30 00:12:03;;;;;;;9.10;5.00;;;4.00;99.90;;;;;;5002346;28;20101;-69
2021/11/30 00:14:29;;;;;;;5.28;2.75;;;4.00;99.90;;;;;;5008830;28;20026;-69
2021/11/30 00:16:57;;;;;;;8.50;3.85;;;4.00;99.90;;;;;;5005641;28;20759;-69
2021/11/30 00:19:24;;;;;;;7.53;3.30;;;4.10;99.90;;;;;;5006097;28;20080;-69
2021/11/30 00:21:49;;;;;;;9.15;3.15;;;4.00;99.90;;;;;;5002160;28;20022;-69
2021/11/30 00:24:15;;;;;;;6.45;2.75;;;4.10;99.90;;;;;;5012711;28;20038;-69
2021/11/30 00:26:40;;;;;;;19.42;4.80;;;4.10;99.90;;;;;;5008423;28;20021;-69
2021/11/30 00:29:06;;;;;;;11.02;4.95;;;4.10;99.90;;;;;;5008187;28;20025;-69
2021/11/30 00:31:32;;;;;;;13.35;3.72;;;4.10;99.90;;;;;;5009819;28;20486;-69
2021/11/30 00:33:57;;;;;;;7.82;3.08;;;4.00;99.90;;;;;;5008435;28;20049;-69
2021/11/30 00:36:23;;;;;;;7.68;3.22;;;4.10;99.90;;;;;;5006563;28;20120;-69
2021/11/30 00:38:49;;;;;;;9.70;4.18;;;4.10;99.90;;;;;;5011505;28;20482;-69
2021/11/30 00:41:15;;;;;;;9.50;3.08;;;4.10;99.90;;;;;;5014985;28;20512;-69
2021/11/30 00:43:40;;;;;;;3.15;2.13;;;4.10;99.90;;;;;;5007824;28;20060;-69
2021/11/30 00:46:23;;;;;;;9.95;3.03;;;4.00;99.90;;;;;;5012259;28;20109;-69
2021/11/30 00:48:49;;;;;;;4.80;2.40;;;4.10;99.90;;;;;;5013671;28;20022;-69
2021/11/30 00:51:18;;;;;;;3.58;1.98;;;4.00;99.90;;;;;;5009229;28;20052;-69
2021/11/30 00:53:47;;;;;;;12.35;6.30;;;4.10;99.90;;;;;;5009567;28;20049;-69
2021/11/30 00:56:13;;;;;;;8.88;2.80;;;4.10;99.90;;;;;;4999457;28;20032;-69
2021/11/30 00:58:41;;;;;;;12.60;3.67;;;4.00;99.90;;;;;;5005044;28;20022;-69
2021/11/30 01:01:07;;;;;;;7.20;2.92;;;4.00;99.90;;;;;;5010554;28;20050;-69
2021/11/30 01:03:33;;;;;;;6.63;2.72;;;4.00;99.90;;;;;;5009148;28;20108;-69
2021/11/30 01:05:59;;;;;;;7.55;3.35;;;4.00;99.90;;;;;;5005581;28;20033;-69
2021/11/30 01:08:25;;;;;;;3.60;1.83;;;4.00;99.90;;;;;;5013470;28;20075;-69
2021/11/30 01:10:51;;;;;;;8.00;3.28;;;4.00;99.90;;;;;;5004568;28;20113;-69
2021/11/30 01:13:18;;;;;;;7.10;2.60;;;3.90;99.90;;;;;;5011726;28;20524;-69
2021/11/30 01:15:44;;;;;;;13.25;4.10;;;4.00;99.90;;;;;;5004296;28;20053;-69
2021/11/30 01:18:10;;;;;;;10.45;3.13;;;4.00;99.90;;;;;;5011251;28;20473;-69
2021/11/30 01:20:36;;;;;;;11.68;3.47;;;4.00;99.90;;;;;;5006015;28;20022;-69
2021/11/30 01:23:03;;;;;;;9.27;3.60;;;4.00;99.90;;;;;;5000614;28;20049;-69
2021/11/30 01:25:29;;;;;;;4.43;2.35;;;3.90;99.90;;;;;;5000936;28;20018;-69
2021/11/30 01:27:54;;;;;;;8.18;2.97;;;4.00;99.90;;;;;;5017699;28;20036;-69
2021/11/30 01:30:20;;;;;;;7.50;2.92;;;4.00;99.90;;;;;;5012471;28;20029;-69
2021/11/30 01:32:47;;;;;;;8.27;3.30;;;4.00;99.90;;;;;;5013379;28;20057;-69
2021/11/30 01:35:14;;;;;;;6.57;2.88;;;4.00;99.90;;;;;;5013770;28;20045;-69
2021/11/30 01:37:40;;;;;;;11.93;3.78;;;3.90;99.90;;;;;;5009670;28;20556;-69
2021/11/30 01:40:11;;;;;;;22.73;4.07;;;3.90;99.90;;;;;;5007925;28;20022;-69
2021/11/30 01:42:43;;;;;;;4.35;2.35;;;3.90;99.90;;;;;;5007174;28;20022;-69
2021/11/30 01:45:11;;;;;;;8.23;1.90;;;3.90;99.90;;;;;;4998495;28;20045;-69
2021/11/30 01:50:09;;;;;;;5.00;2.58;;;3.80;99.90;;;;;;5008686;28;20030;-69
2021/11/30 01:52:35;;;;;;;7.47;2.70;;;3.80;99.90;;;;;;5005326;28;20072;-69
2021/11/30 01:55:02;;;;;;;6.20;3.83;;;3.80;99.90;;;;;;5007665;28;20018;-69
2021/11/30 01:57:28;;;;;;;8.07;5.70;;;3.80;99.90;;;;;;5000054;28;20729;-69
2021/11/30 01:59:54;;;;;;;7.93;2.35;;;3.80;99.90;;;;;;5012494;28;20115;-69
2021/11/30 02:02:21;;;;;;;6.82;2.72;;;3.70;99.90;;;;;;5012504;28;20056;-69
2021/11/30 02:04:47;;;;;;;8.93;2.60;;;3.70;99.90;;;;;;5004330;28;20034;-69
2021/11/30 02:07:13;;;;;;;5.18;2.08;;;3.80;99.90;;;;;;5000311;28;20110;-69
2021/11/30 02:09:40;;;;;;;6.35;2.47;;;3.80;99.90;;;;;;4993610;28;20026;-69
2021/11/30 02:12:08;;;;;;;7.05;3.00;;;3.80;99.90;;;;;;5000324;28;20097;-69
2021/11/30 02:14:35;;;;;;;6.43;2.65;;;3.80;99.90;;;;;;5000905;28;20087;-69
2021/11/30 02:17:03;;;;;;;6.22;2.83;;;3.80;99.90;;;;;;5007507;28;20022;-69
2021/11/30 02:19:28;;;;;;;7.95;2.97;;;3.80;99.90;;;;;;5007148;28;20026;-69
2021/11/30 02:21:54;;;;;;;5.68;3.25;;;3.80;99.90;;;;;;4999525;28;20537;-69
2021/11/30 02:24:20;;;;;;;6.25;2.58;;;3.80;99.90;;;;;;5023254;28;20037;-69
2021/11/30 02:26:46;;;;;;;7.30;2.38;;;3.80;99.90;;;;;;5001729;28;20022;-69
2021/11/30 02:29:12;;;;;;;3.42;1.73;;;3.80;99.90;;;;;;5007957;28;20026;-69
2021/11/30 02:31:45;;;;;;;7.30;2.60;;;3.70;99.90;;;;;;5000414;28;20027;-68
2021/11/30 02:34:12;;;;;;;12.10;1.98;;;3.70;99.90;;;;;;5005500;28;20022;-69
2021/11/30 02:39:11;;;;;;;5.75;2.13;;;3.50;99.90;;;;;;5011606;28;20030;-69
2021/11/30 02:41:39;;;;;;;4.28;1.95;;;3.40;99.90;;;;;;5004204;28;20081;-68
2021/11/30 02:44:05;;;;;;;8.35;3.08;;;3.30;99.90;;;;;;5003596;28;20063;-68
2021/11/30 02:46:33;;;;;;;3.40;1.73;;;3.20;99.90;;;;;;5001435;28;20023;-68
2021/11/30 02:49:00;;;;;;;4.28;1.67;;;3.20;99.90;;;;;;5001832;28;20033;-68
2021/11/30 02:51:26;;;;;;;6.75;1.83;;;3.10;99.90;;;;;;5004343;28;20029;-68
2021/11/30 02:53:54;;;;;;;4.75;2.08;;;3.00;99.90;;;;;;5001647;28;20026;-68
2021/11/30 02:56:19;;;;;;;3.53;1.77;;;3.00;99.90;;;;;;5000063;28;20020;-68
2021/11/30 02:58:45;;;;;;;9.52;2.72;;;2.90;99.90;;;;;;5004487;28;20034;-68
2021/11/30 03:01:12;;;;;;;13.43;4.20;;;2.90;99.90;;;;;;4998999;28;20131;-68
2021/11/30 03:03:38;;;;;;;8.68;2.90;;;2.90;99.90;;;;;;5005027;28;20526;-68
2021/11/30 03:06:03;;;;;;;9.30;2.50;;;2.80;99.90;;;;;;5004462;28;20118;-68
2021/11/30 03:08:29;;;;;;;7.30;3.40;;;2.70;99.90;;;;;;5008564;28;20109;-68
2021/11/30 03:10:55;;;;;;;4.40;2.17;;;2.70;99.90;;;;;;5009796;28;20113;-68
2021/11/30 03:13:21;;;;;;;6.63;3.60;;;2.70;99.90;;;;;;5007480;28;20014;-68
2021/11/30 03:15:54;;;;;;;3.03;1.42;;;2.60;99.90;;;;;;5009983;28;20503;-68
2021/11/30 03:18:20;;;;;;;2.88;1.30;;;2.60;99.90;;;;;;5003827;28;20022;-68
2021/11/30 03:20:46;;;;;;;7.03;3.08;;;2.60;99.90;;;;;;5014222;28;20525;-68
2021/11/30 03:23:12;;;;;;;3.42;2.00;;;2.60;99.90;;;;;;5008401;28;20026;-68
2021/11/30 03:25:39;;;;;;;7.85;2.17;;;2.50;99.90;;;;;;5003648;28;20034;-68
2021/11/30 03:28:04;;;;;;;7.82;2.33;;;2.50;99.90;;;;;;5002655;28;20022;-68
2021/11/30 03:30:30;;;;;;;5.40;2.38;;;2.50;99.90;;;;;;4996766;28;20025;-69
2021/11/30 03:35:40;;;;;;;4.65;1.92;;;2.50;99.90;;;;;;5009886;28;20117;-68
2021/11/30 03:38:06;;;;;;;5.43;2.00;;;2.40;99.90;;;;;;5011303;28;20101;-68
2021/11/30 03:40:32;;;;;;;4.03;2.58;;;2.40;99.90;;;;;;5006499;28;20028;-68
2021/11/30 03:42:57;;;;;;;4.75;2.25;;;2.40;99.90;;;;;;5005611;28;20026;-68
2021/11/30 03:45:23;;;;;;;4.07;1.85;;;2.50;99.90;;;;;;5002808;28;20559;-68
2021/11/30 03:47:49;;;;;;;4.00;1.77;;;2.40;99.90;;;;;;5010293;28;20104;-68
2021/11/30 03:50:14;;;;;;;3.85;1.42;;;2.40;99.90;;;;;;5012186;28;20034;-68
2021/11/30 03:52:40;;;;;;;3.75;1.52;;;2.40;99.90;;;;;;4998123;28;20114;-68
2021/11/30 03:55:07;;;;;;;5.35;1.92;;;2.30;99.90;;;;;;5015294;28;20045;-68
2021/11/30 03:57:33;;;;;;;4.18;2.35;;;2.30;99.90;;;;;;5006273;28;20025;-68
2021/11/30 03:59:58;;;;;;;2.97;1.52;;;2.40;99.90;;;;;;5009464;28;20034;-68
2021/11/30 04:02:24;;;;;;;4.57;2.05;;;2.30;99.90;;;;;;5019246;28;20049;-68
2021/11/30 04:04:50;;;;;;;5.68;2.17;;;2.30;99.90;;;;;;5017636;28;20318;-68
2021/11/30 04:07:16;;;;;;;3.33;1.50;;;2.30;99.90;;;;;;5013093;28;20430;-68
2021/11/30 04:09:42;;;;;;;5.72;1.45;;;2.30;99.90;;;;;;4995347;28;20089;-68
2021/11/30 04:12:08;;;;;;;5.70;2.55;;;2.30;99.90;;;;;;5008893;28;20093;-68
2021/11/30 04:14:34;;;;;;;3.03;1.48;;;2.30;99.90;;;;;;4999033;28;20046;-68
2021/11/30 04:17:00;;;;;;;2.58;1.52;;;2.40;99.90;;;;;;5015222;28;20026;-68
2021/11/30 04:19:25;;;;;;;2.53;1.45;;;2.40;99.90;;;;;;5012045;28;20034;-68
2021/11/30 04:21:51;;;;;;;5.00;1.70;;;2.40;99.90;;;;;;5007724;28;20029;-68
2021/11/30 04:24:17;;;;;;;4.05;1.88;;;2.40;99.90;;;;;;5009765;28;20037;-68
2021/11/30 04:26:43;;;;;;;3.42;1.50;;;2.50;99.90;;;;;;5004638;28;20030;-68
2021/11/30 04:29:08;;;;;;;1.85;1.45;;;2.50;99.90;;;;;;5016861;28;20068;-68
2021/11/30 04:31:35;;;;;;;4.43;1.77;;;2.50;99.90;;;;;;5009911;28;20470;-68
2021/11/30 04:34:03;;;;;;;2.70;1.50;;;2.50;99.90;;;;;;5001246;28;20490;-68
2021/11/30 04:36:29;;;;;;;2.35;1.20;;;2.60;99.90;;;;;;5003715;28;20026;-69
2021/11/30 04:38:56;;;;;;;2.13;1.20;;;2.60;99.90;;;;;;5006646;28;20056;-68
2021/11/30 04:41:22;;;;;;;2.63;1.20;;;2.60;99.90;;;;;;5000525;28;20529;-68
2021/11/30 04:43:49;;;;;;;2.85;1.15;;;2.60;99.90;;;;;;4996113;28;20025;-68
2021/11/30 04:46:26;;;;;;;2.85;1.40;;;2.60;99.90;;;;;;4998125;28;20455;-68
2021/11/30 04:48:56;;;;;;;2.10;1.17;;;2.60;99.90;;;;;;5005779;28;20532;-68
2021/11/30 04:51:23;;;;;;;1.92;1.25;;;2.70;99.90;;;;;;5005971;28;20021;-68
2021/11/30 04:53:50;;;;;;;2.60;1.25;;;2.70;99.90;;;;;;5018177;28;20117;-68
2021/11/30 04:56:16;;;;;;;2.47;0.90;;;2.80;99.90;;;;;;5003496;28;20536;-68
2021/11/30 04:58:43;;;;;;;3.60;1.88;;;2.80;99.90;;;;;;5009756;28;20022;-68
2021/11/30 05:01:09;;;;;;;4.93;1.83;;;2.80;99.90;;;;;;5002004;28;20080;-68
2021/11/30 05:03:35;;;;;;;2.15;1.20;;;2.90;99.90;;;;;;4999980;28;20026;-68
2021/11/30 05:06:01;;;;;;;1.88;1.42;;;2.90;99.90;;;;;;5008859;28;20395;-68
2021/11/30 05:08:28;;;;;;;2.50;1.00;;;2.90;99.90;;;;;;5002160;28;20040;-68
2021/11/30 05:10:54;;;;;;;1.48;1.17;;;3.00;99.90;;;;;;5010062;28;20068;-68
2021/11/30 05:13:20;;;;;;;4.20;1.80;;;3.00;99.90;;;;;;5017418;28;20063;-68
2021/11/30 05:15:45;;;;;;;2.58;1.30;;;3.00;99.90;;;;;;5018296;28;20076;-68
2021/11/30 05:18:11;;;;;;;0.80;0.80;;;3.10;99.90;;;;;;5015906;28;20588;-68
2021/11/30 05:20:37;;;;;;;2.30;1.20;;;3.20;99.90;;;;;;5016432;28;20119;-69
2021/11/30 05:23:03;;;;;;;3.75;1.50;;;3.20;99.90;;;;;;5007799;28;20018;-68
2021/11/30 05:25:37;;;;;;;3.00;1.50;;;3.20;99.90;;;;;;5008915;28;20025;-69
2021/11/30 05:28:05;;;;;;;1.83;1.13;;;3.30;99.90;;;;;;5013734;28;20045;-68
2021/11/30 05:30:38;;;;;;;2.90;1.63;;;3.40;99.90;;;;;;5019565;28;20036;-68
2021/11/30 05:33:10;;;;;;;2.45;1.00;;;3.50;99.90;;;;;;5013749;28;20053;-69
2021/11/30 05:35:37;;;;;;;1.20;1.00;;;3.50;99.90;;;;;;5015849;28;20645;-69
2021/11/30 05:38:03;;;;;;;3.17;1.65;;;3.60;99.90;;;;;;5022148;28;20542;-68
2021/11/30 05:40:30;;;;;;;3.15;1.30;;;3.60;99.90;;;;;;5018115;28;20088;-68
2021/11/30 05:42:56;;;;;;;2.25;1.23;;;3.70;99.90;;;;;;5025087;28;20029;-69
2021/11/30 05:45:22;;;;;;;4.53;2.03;;;3.80;99.90;;;;;;5023500;28;20025;-69
2021/11/30 05:47:47;;;;;;;2.17;1.08;;;3.80;99.90;;;;;;5019028;28;20030;-69
2021/11/30 05:50:13;;;;;;;4.22;1.77;;;3.90;99.90;;;;;;5019296;28;20083;-69
2021/11/30 05:52:39;;;;;;;1.80;1.20;;;3.90;99.90;;;;;;5018855;28;20014;-69
2021/11/30 05:55:07;;;;;;;6.75;1.65;;;3.90;99.90;;;;;;5022345;28;20021;-69
2021/11/30 05:57:33;;;;;;;3.75;1.65;;;4.00;99.90;;;;;;5014045;28;20044;-69
2021/11/30 06:00:01;;;;;;;3.22;1.42;;;4.10;99.90;;;;;;5013005;28;20477;-69
2021/11/30 06:02:31;;;;;;;1.35;1.02;;;4.10;99.90;;;;;;4996166;28;20117;-69
2021/11/30 06:04:57;;;;;;;3.47;1.55;;;4.20;99.90;;;;;;5002165;28;20045;-69
2021/11/30 06:07:23;;;;;;;5.05;2.08;;;4.20;99.90;;;;;;5016515;28;20065;-69
2021/11/30 06:09:48;;;;;;;3.60;1.83;;;4.20;99.90;;;;;;5020061;28;20075;-69
2021/11/30 06:12:14;;;;;;;2.92;1.05;;;4.30;99.90;;;;;;5021912;28;20022;-69
2021/11/30 06:14:40;;;;;;;2.50;1.33;;;4.30;99.90;;;;;;5011275;28;20032;-69
2021/11/30 06:17:06;;;;;;;3.17;1.67;;;4.30;99.90;;;;;;5008209;28;20053;-69
2021/11/30 06:19:34;;;;;;;3.15;1.27;;;4.40;99.90;;;;;;4994847;28;20343;-69
2021/11/30 06:22:00;;;;;;;2.40;1.42;;;4.40;99.90;;;;;;5010195;28;20076;-69
2021/11/30 06:24:26;;;;;;;3.58;1.40;;;4.40;99.90;;;;;;5005001;28;20033;-70
2021/11/30 06:26:52;;;;;;;1.58;1.00;;;4.40;99.90;;;;;;4997177;28;20500;-69
2021/11/30 06:29:17;;;;;;;2.50;1.42;;;4.50;99.90;;;;;;4998736;28;20074;-69
2021/11/30 06:31:43;;;;;;;1.10;1.00;;;4.50;99.90;;;;;;5030377;28;20626;-70
2021/11/30 06:34:09;;;;;;;1.10;0.80;;;4.60;99.90;;;;;;5006049;28;20075;-68
2021/11/30 06:36:34;;;;;;;1.98;1.38;;;4.60;99.90;;;;;;4997428;28;20037;-69
2021/11/30 06:39:00;;;;;;;2.22;1.20;;;4.60;99.90;;;;;;5015691;28;20022;-69
2021/11/30 06:41:26;;;;;;;7.32;1.70;;;4.70;99.90;;;;;;5012938;28;20121;-68
2021/11/30 06:43:51;;;;;;;3.72;1.27;;;4.60;99.90;;;;;;5011612;28;20023;-69
2021/11/30 06:46:19;;;;;;;2.42;1.38;;;4.70;99.90;;;;;;5015211;28;20438;-69
2021/11/30 06:48:44;;;;;;;2.80;1.20;;;4.80;99.90;;;;;;5008770;28;20668;-68
2021/11/30 06:51:10;;;;;;;1.90;1.17;;;4.80;99.90;;;;;;5007041;28;20014;-70
2021/11/30 06:53:36;;;;;;;6.13;2.38;;;4.80;99.90;;;;;;5020118;28;20075;-70
2021/11/30 06:56:02;;;;;;;1.83;1.33;;;4.80;99.90;;;;;;5018674;28;20033;-70
2021/11/30 06:58:28;;;;;;;2.85;1.17;;;4.90;99.90;;;;;;5017932;28;20021;-69
2021/11/30 07:00:54;;;;;;;2.38;1.15;;;4.90;99.90;;;;;;5022489;28;20072;-69
2021/11/30 07:03:22;;;;;;;2.10;1.30;;;5.00;99.90;;;;;;5007335;28;20052;-69
2021/11/30 07:08:54;;;;;;;2.55;1.42;;;5.00;99.90;;;;;;4983327;28;20060;-69
2021/11/30 07:11:36;;;;;;;2.28;1.23;;;5.00;99.90;;;;;;5005173;28;20393;-69
2021/11/30 07:14:03;;;;;;;1.00;0.85;;;5.10;99.90;;;;;;5008128;28;20028;-69
2021/11/30 07:16:29;;;;;;;3.70;1.55;;;5.10;99.90;;;;;;5004474;28;20026;-69
2021/11/30 07:18:55;;;;;;;1.92;1.13;;;5.10;99.90;;;;;;5004296;28;20509;-69
2021/11/30 07:21:21;;;;;;;0.70;0.70;;;5.20;99.90;;;;;;4996729;28;20060;-69
2021/11/30 07:23:47;;;;;;;1.95;0.90;;;5.20;99.90;;;;;;5012668;28;20026;-69
2021/11/30 07:26:12;;;;;;;2.05;1.27;;;5.30;99.90;;;;;;5005075;28;20048;-69
2021/11/30 07:28:38;;;;;;;3.03;1.30;;;5.30;99.90;;;;;;5011871;28;20050;-69
2021/11/30 07:31:09;;;;;;;0.85;0.82;;;5.40;99.90;;;;;;5017440;28;21005;-69
2021/11/30 07:33:37;;;;;;;2.35;1.40;;;5.40;99.90;;;;;;5004734;28;20034;-69
2021/11/30 07:36:08;;;;;;;3.80;1.33;;;5.40;99.90;;;;;;5011825;28;20438;-69
2021/11/30 07:38:34;;;;;;;1.27;1.05;;;5.50;99.90;;;;;;4998342;28;20381;-69
2021/11/30 07:41:00;;;;;;;2.50;1.20;;;5.50;99.90;;;;;;5013109;28;20083;-69
2021/11/30 07:43:26;;;;;;;3.60;1.35;;;5.50;99.90;;;;;;5005900;28;20433;-69
2021/11/30 07:45:52;;;;;;;1.13;1.00;;;5.50;99.90;;;;;;4997156;28;20038;-69
2021/11/30 07:48:18;;;;;;;4.90;1.88;;;5.60;99.90;;;;;;5007220;28;20037;-69
2021/11/30 07:50:45;;;;;;;4.03;1.95;;;5.60;99.90;;;;;;5013061;28;20037;-70
2021/11/30 07:53:10;;;;;;;2.95;1.35;;;5.70;99.90;;;;;;4988805;28;20022;-69
2021/11/30 07:55:36;;;;;;;3.92;1.25;;;5.70;99.90;;;;;;4998506;28;20026;-69
2021/11/30 07:58:03;;;;;;;3.28;1.33;;;5.70;99.90;;;;;;4997104;28;20049;-69
2021/11/30 08:00:29;;;;;;;3.13;1.35;;;5.80;99.90;;;;;;5006768;28;20056;-69
2021/11/30 08:03:03;;;;;;;1.75;1.05;;;5.80;99.90;;;;;;5011648;28;20037;-70
2021/11/30 08:05:29;;;;;;;3.22;1.27;;;5.80;99.90;;;;;;5005967;28;20034;-69
2021/11/30 08:07:55;;;;;;;1.65;1.05;;;5.80;99.90;;;;;;5005718;28;20029;-69
2021/11/30 08:10:24;;;;;;;3.50;1.63;;;5.90;99.90;;;;;;5008993;28;20115;-69
2021/11/30 08:12:49;;;;;;;3.92;1.98;;;5.90;99.90;;;;;;5007552;28;20018;-69
2021/11/30 08:15:16;;;;;;;3.63;1.88;;;6.00;99.90;;;;;;5011708;28;20025;-69
2021/11/30 08:17:42;;;;;;;3.42;1.20;;;6.00;99.90;;;;;;5011284;28;20034;-69
2021/11/30 08:20:09;;;;;;;3.28;1.88;;;6.00;99.90;;;;;;5012705;28;20401;-69
2021/11/30 08:22:36;;;;;;;3.70;1.65;;;6.00;99.90;;;;;;5014192;28;20022;-69
2021/11/30 08:25:04;;;;;;;5.00;2.72;;;6.00;99.90;;;;;;5010602;28;20026;-69
2021/11/30 08:27:30;;;;;;;3.55;2.10;;;6.10;99.90;;;;;;5011289;28;20018;-69
2021/11/30 08:29:55;;;;;;;7.88;3.00;;;6.10;99.90;;;;;;5008616;28;20108;-69
2021/11/30 08:32:22;;;;;;;4.22;1.75;;;6.20;99.90;;;;;;5007405;28;20018;-69
2021/11/30 08:34:50;;;;;;;2.40;1.38;;;6.20;99.90;;;;;;5010462;28;20029;-69
2021/11/30 08:37:16;;;;;;;4.55;2.33;;;6.20;99.90;;;;;;5011506;28;20014;-69
2021/11/30 08:39:42;;;;;;;4.60;1.58;;;6.30;99.90;;;;;;5015657;28;20038;-69
2021/11/30 08:42:10;;;;;;;5.38;1.80;;;6.30;99.90;;;;;;5015976;28;20033;-69
2021/11/30 08:44:37;;;;;;;7.05;3.03;;;6.30;99.90;;;;;;5011214;28;20030;-69
2021/11/30 08:47:05;;;;;;;8.10;2.65;;;6.40;99.90;;;;;;5020849;28;20030;-69
2021/11/30 08:49:31;;;;;;;5.50;1.73;;;6.40;99.90;;;;;;5016010;28;20022;-69
2021/11/30 08:51:57;;;;;;;2.83;1.50;;;6.40;99.90;;;;;;5009687;28;20137;-69
2021/11/30 08:54:24;;;;;;;2.42;1.20;;;6.50;99.90;;;;;;5015964;28;20026;-69
2021/11/30 08:56:50;;;;;;;1.83;1.23;;;6.50;99.90;;;;;;5018816;28;20030;-69
2021/11/30 08:59:16;;;;;;;8.05;3.55;;;6.60;99.90;;;;;;5011667;28;20481;-69
2021/11/30 09:01:42;;;;;;;3.75;1.92;;;6.60;99.90;;;;;;5007806;28;20049;-70
2021/11/30 09:04:09;;;;;;;1.77;1.08;;;6.60;99.90;;;;;;5013514;28;20093;-70
2021/11/30 09:06:35;;;;;;;5.57;2.45;;;6.60;99.90;;;;;;5016395;28;20403;-70
2021/11/30 09:09:02;;;;;;;4.22;2.00;;;6.70;99.90;;;;;;5016976;28;20017;-70
2021/11/30 09:11:28;;;;;;;4.68;2.03;;;6.70;99.90;;;;;;5015086;28;20095;-70
2021/11/30 09:13:54;;;;;;;3.72;1.58;;;6.70;99.90;;;;;;5006966;28;20495;-70
2021/11/30 09:16:21;;;;;;;2.95;1.35;;;6.80;99.90;;;;;;5005577;28;20013;-69
2021/11/30 09:18:47;;;;;;;2.22;1.42;;;6.80;99.90;;;;;;5019725;28;20037;-68
2021/11/30 09:21:13;;;;;;;2.53;1.42;;;6.80;99.90;;;;;;5004370;28;20113;-70
2021/11/30 09:23:39;;;;;;;4.00;2.20;;;6.80;99.90;;;;;;5009504;28;20482;-70
2021/11/30 09:26:05;;;;;;;6.90;2.38;;;6.90;99.90;;;;;;5007787;28;20081;-70
2021/11/30 09:28:31;;;;;;;5.03;1.90;;;6.90;99.90;;;;;;5010046;28;20597;-69
2021/11/30 09:30:57;;;;;;;6.05;2.25;;;6.90;99.90;;;;;;5000749;28;20030;-69
2021/11/30 09:33:22;;;;;;;6.25;2.47;;;6.90;99.90;;;;;;5017350;28;20034;-69
2021/11/30 09:35:48;;;;;;;5.50;1.85;;;6.90;99.90;;;;;;5003136;28;20025;-69
2021/11/30 09:38:14;;;;;;;3.65;1.55;;;7.00;99.90;;;;;;5011359;28;20026;-69
2021/11/30 09:40:40;;;;;;;3.58;1.90;;;7.00;99.90;;;;;;5006697;28;20037;-70
2021/11/30 09:43:08;;;;;;;2.72;1.52;;;7.00;99.90;;;;;;5009489;28;20386;-69
2021/11/30 09:45:38;;;;;;;5.88;2.22;;;7.00;99.90;;;;;;5002483;28;20018;-69
2021/11/30 09:48:09;;;;;;;4.95;2.38;;;7.10;99.90;;;;;;5004437;28;20034;-69
2021/11/30 09:50:35;;;;;;;5.53;2.20;;;7.10;99.90;;;;;;5012389;28;20049;-69
2021/11/30 09:53:00;;;;;;;4.47;1.75;;;7.10;99.90;;;;;;5011698;28;20022;-69
2021/11/30 09:55:26;;;;;;;3.97;1.90;;;7.20;99.90;;;;;;5009654;28;20021;-69
2021/11/30 09:57:53;;;;;;;4.57;1.48;;;7.20;99.90;;;;;;5010107;28;20391;-69
2021/11/30 10:00:21;;;;;;;5.07;2.15;;;7.20;99.90;;;;;;5010888;28;20618;-69
2021/11/30 10:02:48;;;;;;;3.67;1.65;;;7.20;99.90;;;;;;5009086;28;20046;-69
2021/11/30 10:05:15;;;;;;;5.38;2.45;;;7.20;99.90;;;;;;5009047;28;20041;-69
2021/11/30 10:07:43;;;;;;;6.68;2.97;;;7.20;99.90;;;;;;5012268;28;20483;-69
2021/11/30 10:10:15;;;;;;;4.13;1.60;;;7.20;99.90;;;;;;5015347;28;20029;-69
2021/11/30 10:12:41;;;;;;;4.15;1.40;;;7.20;99.90;;;;;;5006646;28;20027;-70
2021/11/30 10:15:09;;;;;;;4.13;1.88;;;7.20;99.90;;;;;;5014757;28;20101;-70
2021/11/30 10:17:36;;;;;;;3.92;1.73;;;7.20;99.90;;;;;;5010317;28;20420;-70
2021/11/30 10:20:10;;;;;;;6.88;1.92;;;7.20;99.90;;;;;;4999192;28;20022;-69
2021/11/30 10:22:49;;;;;;;1.42;1.02;;;7.30;99.90;;;;;;5013077;28;20013;-70
2021/11/30 10:25:17;;;;;;;4.10;1.95;;;7.30;99.90;;;;;;5005260;28;20022;-69
2021/11/30 10:27:46;;;;;;;4.40;1.98;;;7.30;99.90;;;;;;5014671;28;20390;-69
2021/11/30 10:30:16;;;;;;;4.20;1.80;;;7.30;99.90;;;;;;5012205;28;20104;-70
2021/11/30 10:32:46;;;;;;;5.60;2.70;;;7.40;99.90;;;;;;5019034;28;20038;-69
2021/11/30 10:35:12;;;;;;;2.27;1.10;;;7.40;99.90;;;;;;5021239;28;20045;-69
2021/11/30 10:37:43;;;;;;;2.15;1.27;;;7.40;99.90;;;;;;5009312;28;20792;-69
2021/11/30 10:40:12;;;;;;;4.35;1.88;;;7.30;99.90;;;;;;5009803;28;20037;-70
2021/11/30 10:43:05;;;;;;;2.88;1.38;;;7.40;99.90;;;;;;5006160;28;20122;-68
2021/11/30 10:45:35;;;;;;;2.42;1.40;;;7.40;99.90;;;;;;4997362;28;20034;-68
2021/11/30 10:48:14;;;;;;;2.97;1.27;;;7.40;99.90;;;;;;5008778;28;20031;-69
2021/11/30 10:50:50;;;;;;;3.97;1.67;;;7.50;99.90;;;;;;5017045;28;20077;-69
2021/11/30 10:53:30;;;;;;;3.70;1.70;;;7.50;99.90;;;;;;4992600;28;20549;-69
2021/11/30 10:56:01;;;;;;;1.65;1.10;;;7.50;99.90;;;;;;5002219;28;20134;-69
2021/11/30 10:58:29;;;;;;;2.90;1.45;;;7.60;99.90;;;;;;5012122;28;20478;-68
2021/11/30 11:00:59;;;;;;;4.22;1.63;;;7.60;99.90;;;;;;5012360;28;20567;-71
2021/11/30 11:03:26;;;;;;;1.58;1.10;;;7.60;99.90;;;;;;5010476;28;20034;-69
2021/11/30 11:08:43;;;;;;;0.75;0.75;;;7.70;99.90;;;;;;5009919;28;20040;-70
2021/11/30 11:11:09;;;;;;;3.05;1.88;;;7.70;99.90;;;;;;5010669;28;20512;-69
2021/11/30 11:13:37;;;;;;;2.85;1.45;;;7.70;99.90;;;;;;5010921;28;20030;-69
2021/11/30 11:16:06;;;;;;;3.35;1.67;;;7.70;99.90;;;;;;5008959;28;20018;-69
2021/11/30 11:18:39;;;;;;;1.33;0.93;;;7.80;99.90;;;;;;5008694;28;20023;-69
2021/11/30 11:21:11;;;;;;;1.13;0.77;;;7.80;99.90;;;;;;5009687;28;20037;-70
2021/11/30 11:23:42;;;;;;;1.30;0.93;;;7.80;99.90;;;;;;5011265;28;20044;-69
2021/11/30 11:26:34;;;;;;;;;;;7.80;99.90;;;;;;5019839;28;20032;-69
2021/11/30 11:29:10;;;;;;;4.18;1.70;;;7.80;99.90;;;;;;5020596;28;19916;-69
2021/11/30 11:31:39;;;;;;;3.00;1.70;;;7.90;99.90;;;;;;5001510;28;20045;-69
2021/11/30 11:34:06;;;;;;;4.18;2.03;;;7.90;99.90;;;;;;5013641;28;20033;-69
2021/11/30 11:36:32;;;;;;;3.65;1.23;;;7.90;99.90;;;;;;5013590;28;20041;-69
2021/11/30 11:38:59;;;;;;;3.35;1.50;;;7.90;99.90;;;;;;5010007;28;20026;-69
2021/11/30 11:41:25;;;;;;;2.72;0.90;;;7.90;99.90;;;;;;5009613;28;20040;-69
2021/11/30 11:43:52;;;;;;;3.72;1.95;;;7.90;99.90;;;;;;4997758;28;20076;-69
2021/11/30 11:46:19;;;;;;;1.05;0.82;;;7.90;99.90;;;;;;5008864;28;20029;-69
2021/11/30 11:48:47;;;;;;;12.50;1.33;;;7.90;99.90;;;;;;5017493;28;20038;-69
2021/11/30 11:51:14;;;;;;;3.92;1.55;;;7.90;99.90;;;;;;5001587;28;20125;-69
2021/11/30 11:53:55;;;;;;;1.63;0.90;;;7.90;99.90;;;;;;5008409;28;20069;-70
2021/11/30 11:56:27;;;;;;;3.10;1.50;;;7.90;99.90;;;;;;5007676;28;20520;-69
2021/11/30 11:59:10;;;;;;;3.13;1.58;;;7.90;99.90;;;;;;5006551;28;20027;-70
2021/11/30 12:01:37;;;;;;;1.35;0.90;;;8.00;99.90;;;;;;5006088;28;20050;-69
2021/11/30 12:04:05;;;;;;;0.80;0.80;;;8.00;99.90;;;;;;5012213;28;20444;-69
2021/11/30 12:06:52;;;;;;;2.40;1.02;;;8.00;99.90;;;;;;5007924;28;20313;-69
2021/11/30 12:09:30;;;;;;;0.80;0.80;;;8.00;99.90;;;;;;5014621;28;20505;-69
2021/11/30 12:12:10;;;;;;;2.30;1.00;;;8.00;99.90;;;;;;5013018;28;20067;-69
2021/11/30 12:14:45;;;;;;;1.17;0.82;;;8.00;99.90;;;;;;5012271;28;20029;-69
2021/11/30 12:17:25;;;;;;;2.75;1.20;;;8.00;99.90;;;;;;5010990;28;20022;-69
2021/11/30 12:19:56;;;;;;;2.28;1.10;;;8.00;99.90;;;;;;5008928;28;20030;-69
2021/11/30 12:22:46;;;;;;;0.82;0.70;;;8.00;99.90;;;;;;5013601;28;20026;-69
2021/11/30 12:25:21;;;;;;;1.50;1.10;;;7.90;99.90;;;;;;5008783;28;20587;-69
2021/11/30 12:27:46;;;;;;;1.27;0.80;;;7.90;99.90;;;;;;5007817;28;20088;-69
2021/11/30 12:30:34;;;;;;;0.93;0.70;;;7.90;99.90;;;;;;5005618;28;20022;-69
2021/11/30 12:33:01;;;;;;;1.55;0.90;;;7.90;99.90;;;;;;5007219;28;20485;-69
2021/11/30 12:36:01;;;;;;;1.15;0.88;;;8.00;99.90;;;;;;5012505;28;20021;-69
2021/11/30 12:38:52;;;;;;;0.60;0.60;;;7.90;99.90;;;;;;5022033;28;20025;-69
2021/11/30 12:41:26;;;;;;;0.98;0.65;;;7.90;99.90;;;;;;5016556;28;20025;-69
2021/11/30 12:43:53;;;;;;;2.15;1.05;;;7.90;99.90;;;;;;5015984;28;20034;-69
2021/11/30 12:46:55;;;;;;;10.55;0.95;;;7.90;99.90;;;;;;5014033;28;20020;-69
2021/11/30 12:49:29;;;;;;;3.92;1.08;;;7.90;99.90;;;;;;4980132;28;20048;-69
2021/11/30 12:52:09;;;;;;;2.08;0.90;;;7.90;99.90;;;;;;5015933;28;20045;-69
2021/11/30 12:54:36;;;;;;;0.97;0.70;;;7.90;99.90;;;;;;5006875;28;20105;-69
2021/11/30 12:57:03;;;;;;;0.93;0.70;;;7.90;99.90;;;;;;5000663;28;20283;-69
2021/11/30 12:59:39;;;;;;;0.82;0.73;;;7.90;99.90;;;;;;5001412;28;20022;-69
2021/11/30 13:02:35;;;;;;;4.07;1.77;;;7.90;99.90;;;;;;5005600;28;20077;-69
2021/11/30 13:05:10;;;;;;;2.55;0.77;;;7.80;99.90;;;;;;5007038;28;20026;-69
2021/11/30 13:07:57;;;;;;;1.10;0.82;;;7.80;99.90;;;;;;5008473;28;20026;-69
2021/11/30 13:10:26;;;;;;;0.88;0.80;;;7.80;99.90;;;;;;5000462;28;20030;-69
2021/11/30 13:12:54;;;;;;;3.05;1.20;;;7.80;99.90;;;;;;5006229;28;20569;-69
2021/11/30 13:15:22;;;;;;;1.23;0.98;;;7.80;99.90;;;;;;5008632;28;20017;-69
2021/11/30 13:17:49;;;;;;;1.38;0.90;;;7.80;99.90;;;;;;5010940;28;20046;-69
2021/11/30 13:20:18;;;;;;;4.25;0.90;;;7.80;99.90;;;;;;5009959;28;20025;-69